Time;durP1;ratioP1;P1;durP2;ratioP2;P2;SDS_P1;SDS_P2;PMS_P1;PMS_P2;Temp;Humidity;BMP_temperature;BMP_pressure;BME280_temperature;BME280_humidity;BME280_pressure;Samples;Min_cycle;Max_cycle;Signal;HPM_P1;HPM_P2
2022/11/07 00:01:11;;;;;;;;;;;;;;;9.71;100;100532.3;;;;-77
2022/11/07 00:01:36;;;;;;;10.7;3.6;;;;;;;;;;;;;-77
2022/11/07 00:06:06;;;;;;;;;;;;;;;9.74;100;100541;;;;-79
2022/11/07 00:11:06;;;;;;;;;;;;;;;9.73;100;100555.7;;;;-78
2022/11/07 00:16:07;;;;;;;;;;;;;;;9.77;100;100549.1;;;;-78
2022/11/07 00:21:08;;;;;;;;;;;;;;;9.81;100;100550.1;;;;-79
2022/11/07 00:26:08;;;;;;;;;;;;;;;9.82;100;100542.8;;;;-81
2022/11/07 00:31:07;;;;;;;;;;;;;;;9.84;100;100550.3;;;;-80
2022/11/07 00:31:37;;;;;;;11.1;3.3;;;;;;;;;;;;;-80
2022/11/07 00:36:06;;;;;;;;;;;;;;;9.84;100;100556.8;;;;-80
2022/11/07 00:41:06;;;;;;;;;;;;;;;9.87;100;100552.4;;;;-79
2022/11/07 00:46:07;;;;;;;;;;;;;;;9.88;100;100549.9;;;;-80
2022/11/07 00:51:12;;;;;;;;;;;;;;;9.91;100;100562.5;;;;-79
2022/11/07 00:56:07;;;;;;;;;;;;;;;9.93;100;100562.8;;;;-80
2022/11/07 01:01:09;;;;;;;;;;;;;;;9.94;100;100573.8;;;;-80
2022/11/07 01:01:37;;;;;;;14.7;2.9;;;;;;;;;;;;;-80
2022/11/07 01:06:07;;;;;;;;;;;;;;;9.93;100;100579.3;;;;-81
2022/11/07 01:11:07;;;;;;;;;;;;;;;9.92;100;100571.9;;;;-80
2022/11/07 01:16:06;;;;;;;;;;;;;;;9.91;100;100574.5;;;;-80
2022/11/07 01:21:07;;;;;;;;;;;;;;;9.88;100;100590.2;;;;-80
2022/11/07 01:26:10;;;;;;;;;;;;;;;9.88;100;100606.9;;;;-79
2022/11/07 01:31:08;;;;;;;;;;;;;;;9.9;100;100599.9;;;;-79
2022/11/07 01:31:38;;;;;;;7.6;2.3;;;;;;;;;;;;;-80
2022/11/07 01:36:07;;;;;;;;;;;;;;;9.9;100;100618;;;;-79
2022/11/07 01:46:08;;;;;;;;;;;;;;;9.95;100;100617.7;;;;-82
2022/11/07 01:51:09;;;;;;;;;;;;;;;9.95;100;100615.3;;;;-81
2022/11/07 01:56:06;;;;;;;;;;;;;;;9.94;100;100625.8;;;;-81
2022/11/07 02:01:08;;;;;;;;;;;;;;;9.91;100;100632.2;;;;-81
2022/11/07 02:01:39;;;;;;;12.1;2.4;;;;;;;;;;;;;-81
2022/11/07 02:06:08;;;;;;;;;;;;;;;9.85;100;100636.4;;;;-82
2022/11/07 02:11:10;;;;;;;;;;;;;;;9.83;100;100644.9;;;;-80
2022/11/07 02:16:09;;;;;;;;;;;;;;;9.84;100;100646;;;;-81
2022/11/07 02:21:12;;;;;;;;;;;;;;;9.84;100;100643.1;;;;-81
2022/11/07 02:26:07;;;;;;;;;;;;;;;9.87;100;100654.9;;;;-81
2022/11/07 02:31:06;;;;;;;;;;;;;;;9.91;100;100656.3;;;;-75
2022/11/07 02:31:41;;;;;;;9.4;2;;;;;;;;;;;;;-75
2022/11/07 02:36:06;;;;;;;;;;;;;;;9.93;100;100643.4;;;;-74
2022/11/07 02:41:07;;;;;;;;;;;;;;;9.94;100;100646.5;;;;-74
2022/11/07 02:46:08;;;;;;;;;;;;;;;9.96;100;100647.5;;;;-75
2022/11/07 02:51:06;;;;;;;;;;;;;;;9.99;100;100651.7;;;;-81
2022/11/07 02:56:06;;;;;;;;;;;;;;;9.99;100;100645.1;;;;-80
2022/11/07 03:01:06;;;;;;;;;;;;;;;9.98;100;100633.3;;;;-80
2022/11/07 03:01:40;;;;;;;7;2.3;;;;;;;;;;;;;-82
2022/11/07 03:06:06;;;;;;;;;;;;;;;9.96;100;100644.2;;;;-81
2022/11/07 03:11:06;;;;;;;;;;;;;;;9.93;100;100646.3;;;;-80
2022/11/07 03:16:06;;;;;;;;;;;;;;;9.93;100;100653.7;;;;-81
2022/11/07 03:21:06;;;;;;;;;;;;;;;9.92;100;100661.9;;;;-80
2022/11/07 03:26:06;;;;;;;;;;;;;;;9.91;100;100661.5;;;;-81
2022/11/07 03:31:07;;;;;;;;;;;;;;;9.86;100;100647.4;;;;-80
2022/11/07 03:31:40;;;;;;;11.3;2.4;;;;;;;;;;;;;-80
2022/11/07 03:36:06;;;;;;;;;;;;;;;9.83;100;100656.7;;;;-79
2022/11/07 03:41:08;;;;;;;;;;;;;;;9.78;100;100656.8;;;;-81
2022/11/07 03:46:06;;;;;;;;;;;;;;;9.75;100;100652;;;;-79
2022/11/07 03:51:07;;;;;;;;;;;;;;;9.78;100;100645.7;;;;-81
2022/11/07 03:56:08;;;;;;;;;;;;;;;9.81;100;100648.2;;;;-80
2022/11/07 04:01:09;;;;;;;;;;;;;;;9.8;100;100653.6;;;;-80
2022/11/07 04:01:41;;;;;;;6.5;1.8;;;;;;;;;;;;;-81
2022/11/07 04:06:06;;;;;;;;;;;;;;;9.78;100;100656.2;;;;-80
2022/11/07 04:17:17;;;;;;;;;;;;;;;9.78;100;100669.9;;;;-79
2022/11/07 04:21:06;;;;;;;;;;;;;;;9.8;100;100656.9;;;;-81
2022/11/07 04:31:06;;;;;;;;;;;;;;;9.82;100;100656.5;;;;-81
2022/11/07 04:31:41;;;;;;;9.8;2.1;;;;;;;;;;;;;-80
2022/11/07 04:36:06;;;;;;;;;;;;;;;9.82;100;100669.9;;;;-81
2022/11/07 04:41:08;;;;;;;;;;;;;;;9.86;100;100685.1;;;;-80
2022/11/07 04:46:08;;;;;;;;;;;;;;;9.89;100;100685.8;;;;-82
2022/11/07 04:51:14;;;;;;;;;;;;;;;9.9;100;100675.6;;;;-83
2022/11/07 04:56:06;;;;;;;;;;;;;;;9.91;100;100669.9;;;;-82
2022/11/07 05:01:09;;;;;;;;;;;;;;;9.94;100;100663.1;;;;-82
2022/11/07 05:01:42;;;;;;;6.8;2.5;;;;;;;;;;;;;-82
2022/11/07 05:06:06;;;;;;;;;;;;;;;9.95;100;100660.9;;;;-82
2022/11/07 05:11:08;;;;;;;;;;;;;;;9.93;100;100669.8;;;;-81
2022/11/07 05:16:06;;;;;;;;;;;;;;;9.93;100;100653;;;;-81
2022/11/07 05:21:06;;;;;;;;;;;;;;;9.94;100;100660.6;;;;-82
2022/11/07 05:26:06;;;;;;;;;;;;;;;9.95;100;100669.7;;;;-81
2022/11/07 05:31:10;;;;;;;;;;;;;;;9.95;100;100673.9;;;;-80
2022/11/07 05:31:43;;;;;;;9.6;2.6;;;;;;;;;;;;;-80
2022/11/07 05:36:17;;;;;;;;;;;;;;;9.95;100;100668.9;;;;-82
2022/11/07 05:41:06;;;;;;;;;;;;;;;9.95;100;100661;;;;-82
2022/11/07 05:46:06;;;;;;;;;;;;;;;9.97;100;100654.1;;;;-82
2022/11/07 05:51:06;;;;;;;;;;;;;;;9.99;100;100663;;;;-82
2022/11/07 05:56:06;;;;;;;;;;;;;;;9.99;100;100670;;;;-81
2022/11/07 06:01:09;;;;;;;;;;;;;;;9.98;100;100676.1;;;;-80
2022/11/07 06:01:48;;;;;;;12.6;2.1;;;;;;;;;;;;;-81
2022/11/07 06:06:06;;;;;;;;;;;;;;;9.97;100;100679.1;;;;-81
2022/11/07 06:11:07;;;;;;;;;;;;;;;9.96;100;100680.5;;;;-81
2022/11/07 06:16:07;;;;;;;;;;;;;;;9.95;100;100678;;;;-82
2022/11/07 06:21:08;;;;;;;;;;;;;;;9.96;100;100681;;;;-80
2022/11/07 06:26:06;;;;;;;;;;;;;;;9.98;100;100680.4;;;;-80
2022/11/07 06:31:08;;;;;;;;;;;;;;;10.02;100;100699;;;;-81
2022/11/07 06:31:44;;;;;;;10.9;2.8;;;;;;;;;;;;;-80
2022/11/07 06:36:17;;;;;;;;;;;;;;;10.05;100;100698.3;;;;-80
2022/11/07 06:41:11;;;;;;;;;;;;;;;10.07;100;100702.5;;;;-81
2022/11/07 06:46:07;;;;;;;;;;;;;;;10.08;100;100711.4;;;;-80
2022/11/07 06:51:12;;;;;;;;;;;;;;;10.1;100;100710.6;;;;-80
2022/11/07 06:56:06;;;;;;;;;;;;;;;10.12;100;100717.4;;;;-80
2022/11/07 07:01:12;;;;;;;;;;;;;;;10.14;100;100717.3;;;;-79
2022/11/07 07:01:46;;;;;;;14.7;3;;;;;;;;;;;;;-81
2022/11/07 07:06:10;;;;;;;;;;;;;;;10.14;100;100712.6;;;;-80
2022/11/07 07:11:13;;;;;;;;;;;;;;;10.15;100;100726.8;;;;-82
2022/11/07 07:16:06;;;;;;;;;;;;;;;10.17;100;100724;;;;-82
2022/11/07 07:21:10;;;;;;;;;;;;;;;10.19;100;100723.8;;;;-81
2022/11/07 07:26:06;;;;;;;;;;;;;;;10.19;100;100728.6;;;;-81
2022/11/07 07:31:21;;;;;;;;;;;;;;;10.22;100;100731.6;;;;-80
2022/11/07 07:31:48;;;;;;;16.1;3.6;;;;;;;;;;;;;-82
2022/11/07 07:36:06;;;;;;;;;;;;;;;10.24;100;100744.3;;;;-79
2022/11/07 07:41:09;;;;;;;;;;;;;;;10.26;100;100747.8;;;;-82
2022/11/07 07:46:07;;;;;;;;;;;;;;;10.29;100;100756;;;;-82
2022/11/07 07:51:06;;;;;;;;;;;;;;;10.3;100;100752.9;;;;-82
2022/11/07 07:56:06;;;;;;;;;;;;;;;10.33;100;100767.1;;;;-81
2022/11/07 08:01:09;;;;;;;;;;;;;;;10.35;100;100774.7;;;;-80
2022/11/07 08:01:45;;;;;;;10.6;2.9;;;;;;;;;;;;;-82
2022/11/07 08:06:06;;;;;;;;;;;;;;;10.38;100;100782.3;;;;-80
2022/11/07 08:11:08;;;;;;;;;;;;;;;10.4;100;100796;;;;-80
2022/11/07 08:16:10;;;;;;;;;;;;;;;10.42;100;100800.1;;;;-81
2022/11/07 08:21:08;;;;;;;;;;;;;;;10.43;100;100806.4;;;;-80
2022/11/07 08:26:14;;;;;;;;;;;;;;;10.44;100;100820.7;;;;-81
2022/11/07 08:31:07;;;;;;;;;;;;;;;10.48;100;100812.8;;;;-82
2022/11/07 08:31:49;;;;;;;11.4;2.4;;;;;;;;;;;;;-82
2022/11/07 08:36:07;;;;;;;;;;;;;;;10.51;100;100816.5;;;;-81
2022/11/07 08:41:14;;;;;;;;;;;;;;;10.58;100;100825.4;;;;-79
2022/11/07 08:46:06;;;;;;;;;;;;;;;10.68;100;100826.8;;;;-80
2022/11/07 08:51:06;;;;;;;;;;;;;;;10.84;100;100832.8;;;;-80
2022/11/07 08:56:12;;;;;;;;;;;;;;;10.86;100;100831.2;;;;-81
2022/11/07 09:01:09;;;;;;;;;;;;;;;10.88;100;100834;;;;-80
2022/11/07 09:01:47;;;;;;;8.5;2.4;;;;;;;;;;;;;-80
2022/11/07 09:06:06;;;;;;;;;;;;;;;11.01;100;100835.9;;;;-80
2022/11/07 09:11:09;;;;;;;;;;;;;;;11.14;100;100835;;;;-80
2022/11/07 09:16:15;;;;;;;;;;;;;;;11.15;100;100838;;;;-80
2022/11/07 09:21:06;;;;;;;;;;;;;;;11.22;100;100850;;;;-80
2022/11/07 09:26:08;;;;;;;;;;;;;;;11.23;100;100858.9;;;;-78
2022/11/07 09:31:06;;;;;;;;;;;;;;;11.26;100;100860.1;;;;-79
2022/11/07 09:31:47;;;;;;;12.5;2.8;;;;;;;;;;;;;-80
2022/11/07 09:36:07;;;;;;;;;;;;;;;11.3;100;100862.3;;;;-79
2022/11/07 09:41:08;;;;;;;;;;;;;;;11.34;100;100860.4;;;;-78
2022/11/07 09:46:12;;;;;;;;;;;;;;;11.41;100;100860;;;;-78
2022/11/07 09:51:08;;;;;;;;;;;;;;;11.47;100;100877.5;;;;-79
2022/11/07 09:56:08;;;;;;;;;;;;;;;11.57;100;100885.9;;;;-79
2022/11/07 10:01:08;;;;;;;;;;;;;;;11.66;100;100885.3;;;;-77
2022/11/07 10:01:48;;;;;;;11.8;3.3;;;;;;;;;;;;;-79
2022/11/07 10:06:14;;;;;;;;;;;;;;;11.71;100;100902.9;;;;-78
2022/11/07 10:11:12;;;;;;;;;;;;;;;11.68;100;100906;;;;-78
2022/11/07 10:16:15;;;;;;;;;;;;;;;11.71;100;100892.3;;;;-77
2022/11/07 10:21:11;;;;;;;;;;;;;;;11.82;100;100902.2;;;;-78
2022/11/07 10:26:11;;;;;;;;;;;;;;;11.89;100;100908.8;;;;-78
2022/11/07 10:31:09;;;;;;;;;;;;;;;12.02;100;100908.8;;;;-79
2022/11/07 10:31:51;;;;;;;10.1;3.1;;;;;;;;;;;;;-79
2022/11/07 10:36:11;;;;;;;;;;;;;;;12.14;100;100921;;;;-77
2022/11/07 10:41:08;;;;;;;;;;;;;;;12.26;100;100917.7;;;;-76
2022/11/07 10:46:09;;;;;;;;;;;;;;;12.33;100;100921;;;;-77
2022/11/07 10:51:06;;;;;;;;;;;;;;;12.31;99.93457;100924.8;;;;-78
2022/11/07 10:56:12;;;;;;;;;;;;;;;12.2;99.23633;100926.8;;;;-77
2022/11/07 11:01:09;;;;;;;;;;;;;;;12.16;99.67871;100920.8;;;;-77
2022/11/07 11:01:54;;;;;;;11.6;3.1;;;;;;;;;;;;;-77
2022/11/07 11:06:22;;;;;;;;;;;;;;;12.19;99.92969;100921.6;;;;-77
2022/11/07 11:11:15;;;;;;;;;;;;;;;12.22;99.80371;100927.9;;;;-78
2022/11/07 11:16:12;;;;;;;;;;;;;;;12.31;99.68066;100929.7;;;;-77
2022/11/07 11:21:09;;;;;;;;;;;;;;;12.31;99.23926;100926.3;;;;-76
2022/11/07 11:26:09;;;;;;;;;;;;;;;12.26;99.20703;100924.3;;;;-77
2022/11/07 11:31:08;;;;;;;;;;;;;;;12.28;99.68555;100924.2;;;;-78
2022/11/07 11:31:54;;;;;;;8.8;2.5;;;;;;;;;;;;;-78
2022/11/07 11:36:10;;;;;;;;;;;;;;;12.27;99.86035;100921.6;;;;-77
2022/11/07 11:41:10;;;;;;;;;;;;;;;12.29;99.96387;100924.4;;;;-78
2022/11/07 11:46:12;;;;;;;;;;;;;;;12.26;100;100924.9;;;;-78
2022/11/07 11:51:08;;;;;;;;;;;;;;;12.25;100;100927.4;;;;-79
2022/11/07 11:56:17;;;;;;;;;;;;;;;12.25;100;100934.5;;;;-79
2022/11/07 12:01:16;;;;;;;;;;;;;;;12.23;100;100934.7;;;;-78
2022/11/07 12:01:57;;;;;;;10.7;2.6;;;;;;;;;;;;;-78
2022/11/07 12:06:23;;;;;;;;;;;;;;;12.26;100;100936.9;;;;-79
2022/11/07 12:11:08;;;;;;;;;;;;;;;12.27;100;100928.4;;;;-79
2022/11/07 12:16:14;;;;;;;;;;;;;;;12.28;100;100923.2;;;;-79
2022/11/07 12:21:14;;;;;;;;;;;;;;;12.35;100;100924.2;;;;-79
2022/11/07 12:26:09;;;;;;;;;;;;;;;12.42;100;100920.7;;;;-77
2022/11/07 12:31:12;;;;;;;;;;;;;;;12.43;100;100918.4;;;;-79
2022/11/07 12:31:59;;;;;;;13.7;2.8;;;;;;;;;;;;;-79
2022/11/07 12:36:08;;;;;;;;;;;;;;;12.48;100;100914;;;;-79
2022/11/07 12:41:09;;;;;;;;;;;;;;;12.48;99.91895;100913.6;;;;-77
2022/11/07 12:46:10;;;;;;;;;;;;;;;12.51;100;100911.3;;;;-78
2022/11/07 12:51:14;;;;;;;;;;;;;;;12.49;99.62305;100909.3;;;;-77
2022/11/07 12:56:11;;;;;;;;;;;;;;;12.51;99.64844;100909.3;;;;-78
2022/11/07 13:01:07;;;;;;;;;;;;;;;12.51;99.4502;100909.8;;;;-78
2022/11/07 13:01:58;;;;;;;12.5;3;;;;;;;;;;;;;-78
2022/11/07 13:06:14;;;;;;;;;;;;;;;12.52;99.07813;100904.9;;;;-77
2022/11/07 13:11:08;;;;;;;;;;;;;;;12.52;99.11133;100904;;;;-78
2022/11/07 13:16:17;;;;;;;;;;;;;;;12.54;99.09375;100906;;;;-77
2022/11/07 13:21:08;;;;;;;;;;;;;;;12.51;99.09375;100911.6;;;;-78
2022/11/07 13:26:08;;;;;;;;;;;;;;;12.51;99.4834;100906.5;;;;-79
2022/11/07 13:31:06;;;;;;;;;;;;;;;12.46;99.70508;100901;;;;-79
2022/11/07 13:32:12;;;;;;;10.1;3;;;;;;;;;;;;;-80
2022/11/07 13:36:14;;;;;;;;;;;;;;;12.4;99.67969;100905.1;;;;-82
2022/11/07 13:41:09;;;;;;;;;;;;;;;12.38;99.94043;100902;;;;-80
2022/11/07 13:46:08;;;;;;;;;;;;;;;12.36;99.98047;100897;;;;-81
2022/11/07 13:51:08;;;;;;;;;;;;;;;12.33;99.89453;100897;;;;-79
2022/11/07 13:56:12;;;;;;;;;;;;;;;12.33;100;100906.9;;;;-80
2022/11/07 14:01:12;;;;;;;;;;;;;;;12.28;100;100898.9;;;;-81
2022/11/07 14:02:00;;;;;;;10.1;2.7;;;;;;;;;;;;;-81
2022/11/07 14:06:06;;;;;;;;;;;;;;;12.26;100;100903;;;;-81
2022/11/07 14:11:19;;;;;;;;;;;;;;;12.28;100;100901.4;;;;-82
2022/11/07 14:16:13;;;;;;;;;;;;;;;12.24;100;100897.7;;;;-82
2022/11/07 14:21:08;;;;;;;;;;;;;;;12.23;100;100897.3;;;;-81
2022/11/07 14:26:07;;;;;;;;;;;;;;;12.22;100;100899.6;;;;-82
2022/11/07 14:31:07;;;;;;;;;;;;;;;12.18;100;100904.5;;;;-83
2022/11/07 14:32:00;;;;;;;13.8;3.1;;;;;;;;;;;;;-82
2022/11/07 14:36:07;;;;;;;;;;;;;;;12.17;100;100901.7;;;;-82
2022/11/07 14:41:18;;;;;;;;;;;;;;;12.13;100;100905.9;;;;-80
2022/11/07 14:46:07;;;;;;;;;;;;;;;12.15;100;100900.9;;;;-81
2022/11/07 14:51:06;;;;;;;;;;;;;;;12.13;100;100907.8;;;;-82
2022/11/07 14:56:08;;;;;;;;;;;;;;;12.11;100;100903.1;;;;-82
2022/11/07 15:01:15;;;;;;;;;;;;;;;12.12;100;100910.1;;;;-82
2022/11/07 15:01:58;;;;;;;13;3.1;;;;;;;;;;;;;-82
2022/11/07 15:06:06;;;;;;;;;;;;;;;12.11;100;100908.7;;;;-82
2022/11/07 15:11:08;;;;;;;;;;;;;;;12.11;100;100906.2;;;;-81
2022/11/07 15:16:16;;;;;;;;;;;;;;;12.09;100;100904.2;;;;-82
2022/11/07 15:21:06;;;;;;;;;;;;;;;12.08;100;100901.6;;;;-84
2022/11/07 15:26:17;;;;;;;;;;;;;;;12.06;100;100900.5;;;;-82
2022/11/07 15:31:06;;;;;;;;;;;;;;;12.05;100;100902;;;;-83
2022/11/07 15:31:58;;;;;;;10.7;2.9;;;;;;;;;;;;;-83
2022/11/07 15:36:08;;;;;;;;;;;;;;;12.04;100;100900.9;;;;-83
2022/11/07 15:41:15;;;;;;;;;;;;;;;12.01;100;100896.9;;;;-84
2022/11/07 15:46:09;;;;;;;;;;;;;;;12.01;100;100898.4;;;;-83
2022/11/07 15:51:15;;;;;;;;;;;;;;;11.99;100;100903.8;;;;-83
2022/11/07 15:56:08;;;;;;;;;;;;;;;11.98;100;100906.1;;;;-84
2022/11/07 16:01:06;;;;;;;;;;;;;;;11.97;100;100904.3;;;;-82
2022/11/07 16:01:59;;;;;;;10.3;3;;;;;;;;;;;;;-83
2022/11/07 16:06:15;;;;;;;;;;;;;;;11.95;100;100893.6;;;;-80
2022/11/07 16:11:11;;;;;;;;;;;;;;;11.95;100;100895.6;;;;-82
2022/11/07 16:16:06;;;;;;;;;;;;;;;11.92;100;100896.4;;;;-81
2022/11/07 16:21:08;;;;;;;;;;;;;;;11.93;100;100898.2;;;;-82
2022/11/07 16:26:06;;;;;;;;;;;;;;;11.93;100;100893.9;;;;-82
2022/11/07 16:31:17;;;;;;;;;;;;;;;12.01;100;100892.9;;;;-81
2022/11/07 16:32:02;;;;;;;9.4;2.6;;;;;;;;;;;;;-79
2022/11/07 16:35:34;;;;;;;;;;;;;;;11.94;100;100890.1;;;;-74
2022/11/07 16:40:33;;;;;;;;;;;;;;;11.93;100;100893.2;;;;-75
2022/11/07 16:45:34;;;;;;;;;;;;;;;11.94;100;100894.4;;;;-74
2022/11/07 16:50:35;;;;;;;;;;;;;;;11.94;100;100888.4;;;;-74
2022/11/07 16:55:35;;;;;;;;;;;;;;;11.94;100;100897;;;;-75
2022/11/07 17:00:37;;;;;;;;;;;;;;;11.95;100;100892.5;;;;-74
2022/11/07 17:02:03;;;;;;;12.3;2.8;;;;;;;;;;;;;-74
2022/11/07 17:05:35;;;;;;;;;;;;;;;11.95;100;100893.6;;;;-74
2022/11/07 17:12:57;;;;;;;;;;;;;;;12.04;100;100892.9;;;;-78
2022/11/07 17:13:56;;;;;;;;;;;;;;;12.06;100;100893;;;;-80
2022/11/07 17:18:38;;;;;;;;;;;;;;;11.98;100;100889;;;;-82
2022/11/07 17:23:36;;;;;;;;;;;;;;;11.98;100;100878.5;;;;-80
2022/11/07 17:28:35;;;;;;;;;;;;;;;11.99;100;100893.2;;;;-78
2022/11/07 17:32:13;;;;;;;12.8;2.7;;;;;;;;;;;;;-80
2022/11/07 17:33:36;;;;;;;;;;;;;;;11.99;100;100894.7;;;;-80
2022/11/07 17:43:35;;;;;;;;;;;;;;;12.01;100;100901.2;;;;-81
2022/11/07 17:48:35;;;;;;;;;;;;;;;12.01;100;100905.2;;;;-81
2022/11/07 17:53:35;;;;;;;;;;;;;;;12.01;100;100916.8;;;;-79
2022/11/07 17:58:40;;;;;;;;;;;;;;;12.01;100;100910.2;;;;-80
2022/11/07 18:02:13;;;;;;;17.3;3;;;;;;;;;;;;;-79
2022/11/07 18:03:35;;;;;;;;;;;;;;;12;100;100914.8;;;;-79
2022/11/07 18:08:35;;;;;;;;;;;;;;;12;100;100915.3;;;;-80
2022/11/07 18:13:35;;;;;;;;;;;;;;;12.01;100;100921.7;;;;-79
2022/11/07 18:18:35;;;;;;;;;;;;;;;12.03;100;100918.4;;;;-79
2022/11/07 18:23:35;;;;;;;;;;;;;;;12.03;100;100920.5;;;;-79
2022/11/07 18:28:37;;;;;;;;;;;;;;;12.04;100;100923;;;;-78
2022/11/07 18:32:08;;;;;;;14.7;2.7;;;;;;;;;;;;;-79
2022/11/07 18:33:38;;;;;;;;;;;;;;;12.05;100;100928;;;;-79
2022/11/07 18:38:39;;;;;;;;;;;;;;;12.06;100;100922.6;;;;-82
2022/11/07 18:43:35;;;;;;;;;;;;;;;12.06;100;100925.4;;;;-79
2022/11/07 18:48:37;;;;;;;;;;;;;;;12.07;100;100923.1;;;;-80
2022/11/07 18:53:35;;;;;;;;;;;;;;;12.09;100;100915.5;;;;-80
2022/11/07 18:58:36;;;;;;;;;;;;;;;12.08;100;100916.9;;;;-79
2022/11/07 19:02:08;;;;;;;10.6;2.4;;;;;;;;;;;;;-78
2022/11/07 19:03:35;;;;;;;;;;;;;;;12.09;100;100919.3;;;;-78
2022/11/07 19:08:36;;;;;;;;;;;;;;;12.09;100;100924.8;;;;-79
2022/11/07 19:13:37;;;;;;;;;;;;;;;12.1;100;100923.5;;;;-79
2022/11/07 19:18:35;;;;;;;;;;;;;;;12.09;100;100924.6;;;;-80
2022/11/07 19:23:38;;;;;;;;;;;;;;;12.06;100;100930.3;;;;-77
2022/11/07 19:28:40;;;;;;;;;;;;;;;12.02;100;100930.4;;;;-77
2022/11/07 19:32:07;;;;;;;9.3;2.7;;;;;;;;;;;;;-80
2022/11/07 19:33:35;;;;;;;;;;;;;;;12;100;100932.5;;;;-78
2022/11/07 19:38:36;;;;;;;;;;;;;;;11.96;100;100937.2;;;;-79
2022/11/07 19:43:36;;;;;;;;;;;;;;;11.91;100;100932.2;;;;-78
2022/11/07 19:48:35;;;;;;;;;;;;;;;11.89;100;100937.9;;;;-78
2022/11/07 19:53:39;;;;;;;;;;;;;;;11.84;100;100933.3;;;;-78
2022/11/07 19:58:37;;;;;;;;;;;;;;;11.82;100;100931.9;;;;-79
2022/11/07 20:02:12;;;;;;;10.4;2.2;;;;;;;;;;;;;-78
2022/11/07 20:03:35;;;;;;;;;;;;;;;11.78;100;100933.2;;;;-78
2022/11/07 20:08:35;;;;;;;;;;;;;;;11.76;100;100934.5;;;;-78
2022/11/07 20:13:35;;;;;;;;;;;;;;;11.74;100;100934.7;;;;-79
2022/11/07 20:18:35;;;;;;;;;;;;;;;11.74;100;100928.1;;;;-79
2022/11/07 20:23:35;;;;;;;;;;;;;;;11.72;100;100932.3;;;;-78
2022/11/07 20:28:35;;;;;;;;;;;;;;;11.71;100;100933.4;;;;-78
2022/11/07 20:32:10;;;;;;;10.1;2.4;;;;;;;;;;;;;-80
2022/11/07 20:33:35;;;;;;;;;;;;;;;11.7;100;100934.7;;;;-79
2022/11/07 20:38:35;;;;;;;;;;;;;;;11.7;100;100939.3;;;;-78
2022/11/07 20:43:36;;;;;;;;;;;;;;;11.7;100;100937.8;;;;-79
2022/11/07 20:48:35;;;;;;;;;;;;;;;11.67;100;100943.5;;;;-80
2022/11/07 20:53:35;;;;;;;;;;;;;;;11.65;100;100940.4;;;;-79
2022/11/07 20:58:36;;;;;;;;;;;;;;;11.62;100;100939.6;;;;-78
2022/11/07 21:02:13;;;;;;;8.6;2.4;;;;;;;;;;;;;-78
2022/11/07 21:03:35;;;;;;;;;;;;;;;11.63;100;100944.7;;;;-79
2022/11/07 21:08:35;;;;;;;;;;;;;;;11.64;100;100947.4;;;;-78
2022/11/07 21:13:35;;;;;;;;;;;;;;;11.65;100;100945.7;;;;-80
2022/11/07 21:18:35;;;;;;;;;;;;;;;11.65;100;100945.2;;;;-78
2022/11/07 21:23:35;;;;;;;;;;;;;;;11.66;100;100947.3;;;;-78
2022/11/07 21:28:39;;;;;;;;;;;;;;;11.7;100;100938.2;;;;-79
2022/11/07 21:32:11;;;;;;;11.2;2.4;;;;;;;;;;;;;-78
2022/11/07 21:33:35;;;;;;;;;;;;;;;11.73;100;100945.1;;;;-78
2022/11/07 21:38:36;;;;;;;;;;;;;;;11.73;100;100938.6;;;;-79
2022/11/07 21:43:35;;;;;;;;;;;;;;;11.76;100;100945.2;;;;-78
2022/11/07 21:48:35;;;;;;;;;;;;;;;11.78;100;100942.3;;;;-78
2022/11/07 21:53:37;;;;;;;;;;;;;;;11.79;100;100942.7;;;;-79
2022/11/07 21:58:35;;;;;;;;;;;;;;;11.78;100;100935;;;;-79
2022/11/07 22:02:12;;;;;;;12.5;2.6;;;;;;;;;;;;;-79
2022/11/07 22:03:37;;;;;;;;;;;;;;;11.81;100;100929;;;;-79
2022/11/07 22:08:35;;;;;;;;;;;;;;;11.81;100;100936.1;;;;-79
2022/11/07 22:13:36;;;;;;;;;;;;;;;11.83;100;100928.2;;;;-78
2022/11/07 22:18:35;;;;;;;;;;;;;;;11.82;99.96875;100928.9;;;;-77
2022/11/07 22:23:37;;;;;;;;;;;;;;;11.83;99.88281;100934.7;;;;-77
2022/11/07 22:28:35;;;;;;;;;;;;;;;11.85;99.97461;100931.5;;;;-77
2022/11/07 22:32:14;;;;;;;8.2;2.1;;;;;;;;;;;;;-79
2022/11/07 22:33:35;;;;;;;;;;;;;;;11.88;99.80469;100934.6;;;;-79
2022/11/07 22:38:38;;;;;;;;;;;;;;;11.88;99.57324;100927.8;;;;-78
2022/11/07 22:43:35;;;;;;;;;;;;;;;11.86;99.64648;100928.1;;;;-78
2022/11/07 22:48:35;;;;;;;;;;;;;;;11.81;99.58105;100924;;;;-79
2022/11/07 22:53:36;;;;;;;;;;;;;;;11.83;99.5957;100921.5;;;;-78
2022/11/07 22:58:35;;;;;;;;;;;;;;;11.84;99.35352;100912.8;;;;-78
2022/11/07 23:02:13;;;;;;;11.2;2.6;;;;;;;;;;;;;-78
2022/11/07 23:03:35;;;;;;;;;;;;;;;11.82;99.51465;100909.1;;;;-78
2022/11/07 23:08:35;;;;;;;;;;;;;;;11.83;99.52734;100901.9;;;;-78
2022/11/07 23:13:36;;;;;;;;;;;;;;;11.8;99.43359;100898.6;;;;-79
2022/11/07 23:18:35;;;;;;;;;;;;;;;11.8;99.44434;100896.7;;;;-78
2022/11/07 23:23:36;;;;;;;;;;;;;;;11.8;99.43359;100896.7;;;;-77
2022/11/07 23:28:35;;;;;;;;;;;;;;;11.78;99.46191;100892.3;;;;-78
2022/11/07 23:32:14;;;;;;;11.5;2.4;;;;;;;;;;;;;-78
2022/11/07 23:33:36;;;;;;;;;;;;;;;11.76;99.35645;100887.9;;;;-78
2022/11/07 23:38:35;;;;;;;;;;;;;;;11.73;99.35059;100889.1;;;;-79
2022/11/07 23:43:36;;;;;;;;;;;;;;;11.73;99.27344;100885.6;;;;-78
